Time;durP1;ratioP1;P1;durP2;ratioP2;P2;SDS_P1;SDS_P2;PMS_P1;PMS_P2;Temp;Humidity;BMP_temperature;BMP_pressure;BME280_temperature;BME280_humidity;BME280_pressure;Samples;Min_cycle;Max_cycle;Signal;HPM_P1;HPM_P2
2024/02/05 00:01:56;;;;;;;22.77;8.90;;;11.30;99.90;;;;;;5060678;28;20493;-82
2024/02/05 00:04:24;;;;;;;14.97;8.73;;;11.30;99.90;;;;;;5059919;28;20467;-83
2024/02/05 00:06:51;;;;;;;15.17;8.77;;;11.30;99.90;;;;;;5061454;28;20451;-82
2024/02/05 00:09:19;;;;;;;12.33;7.57;;;11.20;99.90;;;;;;5055675;28;20552;-82
2024/02/05 00:11:46;;;;;;;14.67;7.73;;;11.20;99.90;;;;;;5068420;28;20456;-84
2024/02/05 00:14:12;;;;;;;11.07;8.10;;;11.20;99.90;;;;;;5064051;28;20428;-83
2024/02/05 00:16:39;;;;;;;9.60;8.17;;;11.10;99.90;;;;;;5064788;28;20515;-83
2024/02/05 00:19:07;;;;;;;11.20;7.63;;;11.10;99.90;;;;;;5063635;28;20528;-82
2024/02/05 00:21:35;;;;;;;11.10;8.30;;;11.10;99.90;;;;;;5064476;28;20490;-82
2024/02/05 00:24:03;;;;;;;14.27;9.80;;;11.00;99.90;;;;;;5068047;28;20482;-82
2024/02/05 00:26:30;;;;;;;21.63;9.87;;;11.00;99.90;;;;;;5066928;28;20464;-83
2024/02/05 00:28:56;;;;;;;13.60;9.43;;;11.00;99.90;;;;;;5068717;28;20459;-82
2024/02/05 00:31:24;;;;;;;16.53;10.17;;;11.00;99.90;;;;;;5068883;28;20465;-83
2024/02/05 00:33:51;;;;;;;15.07;9.60;;;10.90;99.90;;;;;;5063565;28;20441;-82
2024/02/05 00:36:17;;;;;;;16.30;11.10;;;10.90;99.90;;;;;;5066106;28;20606;-83
2024/02/05 00:38:46;;;;;;;14.77;10.20;;;10.90;99.90;;;;;;5068374;28;20525;-83
2024/02/05 00:41:12;;;;;;;22.77;10.87;;;10.90;99.90;;;;;;5062007;28;20524;-82
2024/02/05 00:43:39;;;;;;;18.73;10.80;;;10.90;99.90;;;;;;5064945;28;20548;-82
2024/02/05 00:46:06;;;;;;;13.07;10.80;;;10.90;99.90;;;;;;5066887;28;20512;-82
2024/02/05 00:48:34;;;;;;;14.10;10.93;;;10.90;99.90;;;;;;5065097;28;20460;-82
2024/02/05 00:51:01;;;;;;;17.80;11.00;;;10.90;99.90;;;;;;5066752;28;20434;-82
2024/02/05 00:53:28;;;;;;;20.90;10.43;;;11.00;99.90;;;;;;5064537;28;20693;-82
2024/02/05 00:55:56;;;;;;;11.87;10.03;;;10.90;99.90;;;;;;5066558;28;20480;-82
2024/02/05 00:58:23;;;;;;;15.43;10.80;;;11.00;99.90;;;;;;5067137;28;20483;-82
2024/02/05 01:00:50;;;;;;;19.60;10.27;;;11.00;99.90;;;;;;5068117;28;20495;-82
2024/02/05 01:03:17;;;;;;;15.80;9.50;;;11.00;99.90;;;;;;5069312;28;20476;-83
2024/02/05 01:05:44;;;;;;;14.03;9.93;;;11.00;99.90;;;;;;5065903;28;20456;-83
2024/02/05 01:08:10;;;;;;;27.03;12.40;;;11.00;99.90;;;;;;5065224;28;20473;-83
2024/02/05 01:10:37;;;;;;;13.03;9.37;;;11.10;99.90;;;;;;5065035;28;20460;-82
2024/02/05 01:13:05;;;;;;;16.73;10.37;;;11.10;99.90;;;;;;5065756;28;20540;-83
2024/02/05 01:15:33;;;;;;;17.00;9.30;;;11.00;99.90;;;;;;5066300;28;20543;-82
2024/02/05 01:17:59;;;;;;;17.90;9.10;;;11.10;99.90;;;;;;5065653;28;20456;-79
2024/02/05 01:20:26;;;;;;;13.60;8.70;;;11.00;99.90;;;;;;5065501;28;20548;-83
2024/02/05 01:22:53;;;;;;;17.07;8.43;;;11.00;99.90;;;;;;5057830;28;20485;-80
2024/02/05 01:25:20;;;;;;;20.20;9.50;;;11.10;99.90;;;;;;5057027;28;20540;-80
2024/02/05 01:27:47;;;;;;;12.57;7.83;;;11.00;99.90;;;;;;5062171;28;20491;-80
2024/02/05 01:30:15;;;;;;;15.17;8.70;;;11.10;99.90;;;;;;5068542;28;20559;-82
2024/02/05 01:32:42;;;;;;;13.60;7.90;;;11.10;99.90;;;;;;5067844;28;20495;-81
2024/02/05 01:35:10;;;;;;;13.60;8.50;;;11.10;99.90;;;;;;5068140;28;20481;-79
2024/02/05 01:37:38;;;;;;;17.47;8.70;;;11.10;99.90;;;;;;5069854;28;20497;-79
2024/02/05 01:40:09;;;;;;;13.40;7.37;;;11.20;99.90;;;;;;5069317;28;20484;-81
2024/02/05 01:42:36;;;;;;;19.73;8.50;;;11.20;99.90;;;;;;5069972;28;20496;-80
2024/02/05 01:45:04;;;;;;;21.60;9.53;;;11.20;99.90;;;;;;5072461;28;20455;-79
2024/02/05 01:47:33;;;;;;;17.40;7.60;;;11.20;99.90;;;;;;5071617;28;20463;-80
2024/02/05 01:50:00;;;;;;;19.90;6.67;;;11.20;99.90;;;;;;5072706;28;20512;-81
2024/02/05 01:52:29;;;;;;;17.83;7.10;;;11.30;99.90;;;;;;5072063;28;20445;-80
2024/02/05 01:54:56;;;;;;;19.33;7.67;;;11.30;99.90;;;;;;5072094;28;20447;-80
2024/02/05 01:57:23;;;;;;;16.17;7.30;;;11.30;99.90;;;;;;5072551;28;20503;-83
2024/02/05 01:59:50;;;;;;;16.93;7.20;;;11.20;99.90;;;;;;5071786;28;20559;-80
2024/02/05 02:02:18;;;;;;;19.93;6.80;;;11.20;99.90;;;;;;5069487;28;20504;-83
2024/02/05 02:04:46;;;;;;;15.90;6.40;;;11.30;99.90;;;;;;5072983;28;20452;-79
2024/02/05 02:07:15;;;;;;;12.57;6.47;;;11.30;99.90;;;;;;5071522;28;20555;-80
2024/02/05 02:09:42;;;;;;;18.10;5.93;;;11.30;99.90;;;;;;5071798;28;20504;-80
2024/02/05 02:12:10;;;;;;;14.33;6.87;;;11.30;99.90;;;;;;5071495;28;20541;-79
2024/02/05 02:14:37;;;;;;;19.33;7.20;;;11.40;99.90;;;;;;5071106;28;20457;-79
2024/02/05 02:17:04;;;;;;;14.80;5.80;;;11.30;99.90;;;;;;5071308;28;20518;-79
2024/02/05 02:19:38;;;;;;;19.83;5.83;;;11.30;99.90;;;;;;5063816;28;20513;-80
2024/02/05 02:22:20;;;;;;;15.33;5.50;;;11.30;99.90;;;;;;5064763;28;20536;-80
2024/02/05 02:24:51;;;;;;;16.33;4.90;;;11.30;99.90;;;;;;5071903;28;20535;-81
2024/02/05 02:27:18;;;;;;;13.60;5.90;;;11.30;99.90;;;;;;5068998;28;20537;-80
2024/02/05 02:29:45;;;;;;;9.40;5.23;;;11.30;99.90;;;;;;5068372;28;20535;-79
2024/02/05 02:32:34;;;;;;;11.47;5.50;;;11.20;99.90;;;;;;5069782;28;20519;-80
2024/02/05 02:35:06;;;;;;;20.70;6.13;;;11.30;99.90;;;;;;5070486;28;20480;-81
2024/02/05 02:37:38;;;;;;;11.17;5.70;;;11.30;99.90;;;;;;5067731;28;20495;-79
2024/02/05 02:40:10;;;;;;;16.83;5.97;;;11.20;99.90;;;;;;5071543;28;20498;-80
2024/02/05 02:42:40;;;;;;;16.53;6.10;;;11.20;99.90;;;;;;5070565;28;20475;-79
2024/02/05 02:45:08;;;;;;;18.10;6.63;;;11.20;99.90;;;;;;5068741;28;20860;-79
2024/02/05 02:47:36;;;;;;;14.13;6.47;;;11.20;99.90;;;;;;5069418;28;20500;-80
2024/02/05 02:50:03;;;;;;;26.73;7.50;;;11.20;99.90;;;;;;5062642;28;20498;-80
2024/02/05 02:52:29;;;;;;;21.37;6.20;;;11.20;99.90;;;;;;5066688;28;20446;-80
2024/02/05 02:54:56;;;;;;;18.43;7.17;;;11.20;99.90;;;;;;5069734;28;20491;-81
2024/02/05 02:57:25;;;;;;;13.57;6.10;;;11.20;99.90;;;;;;5066347;28;20464;-81
2024/02/05 02:59:53;;;;;;;15.10;6.87;;;11.20;99.90;;;;;;5071297;28;20476;-81
2024/02/05 03:02:20;;;;;;;18.80;7.20;;;11.20;99.90;;;;;;5071495;28;21024;-81
2024/02/05 03:04:47;;;;;;;12.63;7.13;;;11.20;99.90;;;;;;5070841;28;20462;-80
2024/02/05 03:07:14;;;;;;;21.70;6.80;;;11.10;99.90;;;;;;5071153;28;20463;-80
2024/02/05 03:09:41;;;;;;;15.53;6.47;;;11.20;99.90;;;;;;5072562;28;20543;-81
2024/02/05 03:12:08;;;;;;;21.17;7.67;;;11.20;99.90;;;;;;5072558;28;20539;-80
2024/02/05 03:14:36;;;;;;;17.07;7.00;;;11.20;99.90;;;;;;5071236;28;20841;-80
2024/02/05 03:17:03;;;;;;;16.63;6.13;;;11.10;99.90;;;;;;5068825;28;20520;-81
2024/02/05 03:19:30;;;;;;;28.90;7.67;;;11.20;99.90;;;;;;5069388;28;20480;-81
2024/02/05 03:21:57;;;;;;;23.93;10.00;;;11.10;99.90;;;;;;5071259;28;20480;-78
2024/02/05 03:24:24;;;;;;;18.23;7.80;;;11.10;99.90;;;;;;5061702;28;20497;-81
2024/02/05 03:26:51;;;;;;;16.10;8.10;;;11.10;99.90;;;;;;5069086;28;20471;-82
2024/02/05 03:29:18;;;;;;;23.70;8.90;;;11.10;99.90;;;;;;5070495;28;20473;-80
2024/02/05 03:31:46;;;;;;;18.60;7.83;;;11.10;99.90;;;;;;5068452;28;21026;-81
2024/02/05 03:34:14;;;;;;;22.73;7.93;;;11.10;99.90;;;;;;5068541;28;20457;-81
2024/02/05 03:36:41;;;;;;;14.23;7.20;;;11.00;99.90;;;;;;5068432;28;20578;-81
2024/02/05 03:39:08;;;;;;;20.20;6.60;;;11.00;99.90;;;;;;5066041;28;20572;-81
2024/02/05 03:41:35;;;;;;;16.50;8.13;;;11.00;99.90;;;;;;5065071;28;20483;-80
2024/02/05 03:44:03;;;;;;;24.73;8.87;;;11.10;99.90;;;;;;5060493;28;20956;-80
2024/02/05 03:46:29;;;;;;;21.07;8.60;;;11.00;99.90;;;;;;5054849;28;20464;-80
2024/02/05 03:48:58;;;;;;;17.03;8.47;;;11.00;99.90;;;;;;5051014;28;20479;-81
2024/02/05 03:51:25;;;;;;;20.30;7.47;;;11.00;99.90;;;;;;5054372;28;21007;-80
2024/02/05 03:53:52;;;;;;;34.73;15.57;;;11.00;99.90;;;;;;5055033;28;20461;-81
2024/02/05 03:56:19;;;;;;;19.27;8.27;;;11.00;99.90;;;;;;5054205;28;20603;-81
2024/02/05 03:58:48;;;;;;;17.90;7.07;;;11.00;99.90;;;;;;5054668;28;20543;-81
2024/02/05 04:01:15;;;;;;;16.97;6.97;;;11.00;99.90;;;;;;5054898;28;21006;-79
2024/02/05 04:03:42;;;;;;;17.40;8.20;;;11.00;99.90;;;;;;5048540;28;20480;-80
2024/02/05 04:06:10;;;;;;;27.33;8.67;;;11.00;99.90;;;;;;5054300;28;20923;-82
2024/02/05 04:08:36;;;;;;;31.10;9.60;;;10.90;99.90;;;;;;5053999;28;20484;-81
2024/02/05 04:11:03;;;;;;;22.43;7.93;;;11.00;99.90;;;;;;5054999;28;20940;-81
2024/02/05 04:13:30;;;;;;;15.37;7.17;;;11.00;99.90;;;;;;5055607;28;20452;-80
2024/02/05 04:15:57;;;;;;;21.97;8.23;;;11.10;99.90;;;;;;5053947;28;20445;-81
2024/02/05 04:18:24;;;;;;;25.63;8.37;;;11.00;99.90;;;;;;5055659;28;20468;-81
2024/02/05 04:20:52;;;;;;;20.40;7.60;;;11.00;99.90;;;;;;5057277;28;20457;-81
2024/02/05 04:23:20;;;;;;;26.20;9.00;;;11.10;99.90;;;;;;5052804;28;20495;-81
2024/02/05 04:25:47;;;;;;;17.83;8.30;;;11.10;99.90;;;;;;5050259;28;20528;-80
2024/02/05 04:28:14;;;;;;;14.37;6.57;;;11.00;99.90;;;;;;5053609;28;20453;-80
2024/02/05 04:30:42;;;;;;;14.93;6.63;;;11.10;99.90;;;;;;5052297;28;21013;-80
2024/02/05 04:33:09;;;;;;;19.47;8.13;;;11.00;99.90;;;;;;5053011;28;20457;-81
2024/02/05 04:35:36;;;;;;;24.87;8.67;;;11.00;99.90;;;;;;5051077;28;20483;-81
2024/02/05 04:38:02;;;;;;;16.23;8.57;;;11.00;99.90;;;;;;5054154;28;20467;-80
2024/02/05 04:40:31;;;;;;;15.13;7.27;;;11.00;99.90;;;;;;5054779;28;20491;-81
2024/02/05 04:42:57;;;;;;;21.90;9.90;;;11.00;99.90;;;;;;5055315;28;21025;-81
2024/02/05 04:45:24;;;;;;;16.53;7.30;;;11.00;99.90;;;;;;5056192;28;20455;-80
2024/02/05 04:47:51;;;;;;;20.90;7.73;;;11.00;99.90;;;;;;5053096;28;20464;-80
2024/02/05 04:50:18;;;;;;;22.00;8.83;;;11.00;99.90;;;;;;5051662;28;20485;-80
2024/02/05 04:52:47;;;;;;;23.10;8.50;;;11.00;99.90;;;;;;5053054;28;20477;-80
2024/02/05 04:55:14;;;;;;;17.13;8.70;;;10.90;99.90;;;;;;5053512;28;20460;-80
2024/02/05 04:57:48;;;;;;;26.07;9.20;;;10.90;99.90;;;;;;5053095;28;20447;-80
2024/02/05 05:00:15;;;;;;;16.03;8.70;;;10.90;99.90;;;;;;5053075;28;20476;-81
2024/02/05 05:02:42;;;;;;;22.80;8.83;;;11.00;99.90;;;;;;5053424;28;21046;-81
2024/02/05 05:05:09;;;;;;;24.37;8.10;;;10.90;99.90;;;;;;5051551;28;20463;-79
2024/02/05 05:07:36;;;;;;;19.43;7.63;;;11.00;99.90;;;;;;5053892;28;20550;-81
2024/02/05 05:10:03;;;;;;;23.47;9.80;;;10.90;99.90;;;;;;5045538;28;20542;-81
2024/02/05 05:12:30;;;;;;;23.43;10.47;;;11.00;99.90;;;;;;5055757;28;20483;-81
2024/02/05 05:14:58;;;;;;;21.73;8.83;;;10.90;99.90;;;;;;5057363;28;21042;-81
2024/02/05 05:17:25;;;;;;;21.60;10.03;;;10.90;99.90;;;;;;5056829;28;20484;-80
2024/02/05 05:19:52;;;;;;;22.37;10.10;;;10.90;99.90;;;;;;5059194;28;20474;-81
2024/02/05 05:22:19;;;;;;;26.60;8.37;;;10.90;99.90;;;;;;5062044;28;20474;-81
2024/02/05 05:24:45;;;;;;;19.07;7.00;;;10.90;99.90;;;;;;5061688;28;20573;-81
2024/02/05 05:27:12;;;;;;;20.20;7.90;;;10.90;99.90;;;;;;5053822;28;20872;-83
2024/02/05 05:29:39;;;;;;;22.07;7.57;;;10.90;99.90;;;;;;5062191;28;20512;-82
2024/02/05 05:32:07;;;;;;;22.10;7.80;;;10.90;99.90;;;;;;5059284;28;20531;-81
2024/02/05 05:34:34;;;;;;;22.27;9.70;;;10.90;99.90;;;;;;5060588;28;20469;-81
2024/02/05 05:37:01;;;;;;;22.17;8.23;;;10.90;99.90;;;;;;5068101;28;20451;-80
2024/02/05 05:39:29;;;;;;;15.80;8.00;;;10.90;99.90;;;;;;5066316;28;20484;-82
2024/02/05 05:41:56;;;;;;;19.73;8.47;;;10.90;99.90;;;;;;5053595;28;20440;-80
2024/02/05 05:44:23;;;;;;;19.97;8.20;;;10.90;99.90;;;;;;5052373;28;20571;-80
2024/02/05 05:46:50;;;;;;;17.10;7.47;;;10.90;99.90;;;;;;5057609;28;20451;-81
2024/02/05 05:49:18;;;;;;;21.47;8.03;;;10.90;99.90;;;;;;5058063;28;20464;-83
2024/02/05 05:51:45;;;;;;;16.07;7.33;;;10.90;99.90;;;;;;5057463;28;20483;-83
2024/02/05 05:54:12;;;;;;;22.10;7.23;;;10.90;99.90;;;;;;5053534;28;20524;-82
2024/02/05 05:56:38;;;;;;;28.93;9.67;;;10.90;99.90;;;;;;5046610;28;20444;-82
2024/02/05 05:59:05;;;;;;;18.20;8.10;;;10.90;99.90;;;;;;5053778;28;20532;-80
2024/02/05 06:01:35;;;;;;;21.37;8.40;;;10.90;99.90;;;;;;5052988;28;20456;-81
2024/02/05 06:04:02;;;;;;;15.67;7.90;;;10.90;99.90;;;;;;5051912;28;20483;-80
2024/02/05 06:06:30;;;;;;;24.07;9.03;;;10.90;99.90;;;;;;5049331;28;20460;-81
2024/02/05 06:08:57;;;;;;;14.90;6.90;;;10.90;99.90;;;;;;5049863;28;20560;-81
2024/02/05 06:11:24;;;;;;;22.83;8.70;;;10.90;99.90;;;;;;5049436;28;20436;-81
2024/02/05 06:13:50;;;;;;;17.30;7.50;;;10.80;99.90;;;;;;5048399;28;20508;-80
2024/02/05 06:16:17;;;;;;;18.13;9.97;;;10.80;99.90;;;;;;5049642;28;20468;-81
2024/02/05 06:18:44;;;;;;;18.27;8.33;;;10.80;99.90;;;;;;5055529;28;20464;-81
2024/02/05 06:21:11;;;;;;;21.20;7.80;;;10.80;99.90;;;;;;5063930;28;20545;-81
2024/02/05 06:23:39;;;;;;;15.73;6.73;;;10.80;99.90;;;;;;5054347;28;20505;-81
2024/02/05 06:26:07;;;;;;;18.83;8.13;;;10.80;99.90;;;;;;5051168;28;20455;-81
2024/02/05 06:28:34;;;;;;;23.80;7.50;;;10.80;99.90;;;;;;5064530;28;20470;-82
2024/02/05 06:31:01;;;;;;;16.20;6.67;;;10.80;99.90;;;;;;5065629;28;20546;-81
2024/02/05 06:33:30;;;;;;;16.40;7.67;;;10.80;99.90;;;;;;5063613;28;20519;-82
2024/02/05 06:35:56;;;;;;;23.13;8.63;;;10.70;99.90;;;;;;5051937;28;20456;-82
2024/02/05 06:38:23;;;;;;;16.33;7.30;;;10.70;99.90;;;;;;5060042;28;21025;-81
2024/02/05 06:40:52;;;;;;;10.83;6.30;;;10.70;99.90;;;;;;5061086;28;20512;-81
2024/02/05 06:43:19;;;;;;;15.57;7.93;;;10.80;99.90;;;;;;5061456;28;20484;-81
2024/02/05 06:45:46;;;;;;;19.33;8.07;;;10.70;99.90;;;;;;5061245;28;21029;-82
2024/02/05 06:48:13;;;;;;;27.07;7.53;;;10.80;99.90;;;;;;5067113;28;20451;-82
2024/02/05 06:50:40;;;;;;;22.10;6.00;;;10.80;99.90;;;;;;5055703;28;20465;-82
2024/02/05 06:53:07;;;;;;;17.30;7.10;;;10.80;99.90;;;;;;5061804;28;20495;-82
2024/02/05 06:55:33;;;;;;;19.60;6.50;;;10.80;99.90;;;;;;5060599;28;20470;-82
2024/02/05 06:58:02;;;;;;;16.17;6.63;;;10.80;99.90;;;;;;5060940;28;20452;-82
2024/02/05 07:00:28;;;;;;;21.93;7.53;;;10.70;99.90;;;;;;5053663;28;20564;-82
2024/02/05 07:02:55;;;;;;;19.00;6.70;;;10.70;99.90;;;;;;5054005;28;20450;-82
2024/02/05 07:05:22;;;;;;;14.80;6.50;;;10.70;99.90;;;;;;5057959;28;20912;-81
2024/02/05 07:07:50;;;;;;;18.63;6.43;;;10.70;99.90;;;;;;5061193;28;20468;-80
2024/02/05 07:10:17;;;;;;;17.70;7.23;;;10.70;99.90;;;;;;5062979;28;20480;-83
2024/02/05 07:12:44;;;;;;;23.90;7.13;;;10.70;99.90;;;;;;5062229;28;20454;-82
2024/02/05 07:15:13;;;;;;;25.20;7.30;;;10.70;99.90;;;;;;5060560;28;20449;-80
2024/02/05 07:17:43;;;;;;;17.80;6.47;;;10.70;99.90;;;;;;5061216;28;20876;-80
2024/02/05 07:20:10;;;;;;;19.80;6.20;;;10.70;99.90;;;;;;5053348;28;20486;-81
2024/02/05 07:22:38;;;;;;;19.23;5.97;;;10.70;99.90;;;;;;5061019;28;20484;-80
2024/02/05 07:25:06;;;;;;;19.27;5.93;;;10.80;99.90;;;;;;5059563;28;20529;-85
2024/02/05 07:27:35;;;;;;;17.77;5.57;;;10.80;99.90;;;;;;5057672;28;20528;-80
2024/02/05 07:30:03;;;;;;;19.63;5.93;;;10.80;99.90;;;;;;5057631;28;20479;-79
2024/02/05 07:32:31;;;;;;;13.13;6.83;;;10.70;99.90;;;;;;5061453;28;20535;-82
2024/02/05 07:34:58;;;;;;;16.23;5.93;;;10.80;99.90;;;;;;5059232;28;20527;-81
2024/02/05 07:37:25;;;;;;;20.47;11.50;;;10.70;99.90;;;;;;5060696;28;20476;-81
2024/02/05 07:39:51;;;;;;;14.53;5.60;;;10.70;99.90;;;;;;5057282;28;20484;-83
2024/02/05 07:42:18;;;;;;;15.37;6.93;;;10.70;99.90;;;;;;5061856;28;20462;-81
2024/02/05 07:44:45;;;;;;;13.00;4.73;;;10.80;99.90;;;;;;5057644;28;20553;-82
2024/02/05 07:47:12;;;;;;;16.67;6.00;;;10.80;99.90;;;;;;5063589;28;21103;-82
2024/02/05 07:49:42;;;;;;;12.47;4.60;;;10.80;99.90;;;;;;5058197;28;20548;-80
2024/02/05 07:52:09;;;;;;;21.73;5.57;;;10.70;99.90;;;;;;5060616;28;20516;-81
2024/02/05 07:54:37;;;;;;;15.23;6.00;;;10.70;99.90;;;;;;5060675;28;20455;-82
2024/02/05 07:57:04;;;;;;;22.60;5.77;;;10.70;99.90;;;;;;5056278;28;20498;-81
2024/02/05 07:59:32;;;;;;;21.97;6.90;;;10.80;99.90;;;;;;5060916;28;20472;-82
2024/02/05 08:01:59;;;;;;;17.30;5.20;;;10.80;99.90;;;;;;5051453;28;20484;-82
2024/02/05 08:04:26;;;;;;;18.53;6.00;;;10.80;99.90;;;;;;5055873;28;20499;-82
2024/02/05 08:06:54;;;;;;;19.83;6.23;;;10.80;99.90;;;;;;5061192;28;20510;-83
2024/02/05 08:09:21;;;;;;;16.50;5.97;;;10.80;99.90;;;;;;5061347;28;20539;-82
2024/02/05 08:11:47;;;;;;;27.47;6.13;;;10.80;99.90;;;;;;5058885;28;20534;-80
2024/02/05 08:14:14;;;;;;;21.63;5.73;;;10.70;99.90;;;;;;5054895;28;20548;-81
2024/02/05 08:16:41;;;;;;;29.83;7.40;;;10.70;99.90;;;;;;5052695;28;20461;-81
2024/02/05 08:19:09;;;;;;;17.20;6.03;;;10.70;99.90;;;;;;5052154;28;20547;-81
2024/02/05 08:21:37;;;;;;;17.10;5.20;;;10.80;99.90;;;;;;5053514;28;20470;-82
2024/02/05 08:24:06;;;;;;;14.50;4.73;;;10.80;99.90;;;;;;5047579;28;20476;-82
2024/02/05 08:26:35;;;;;;;22.60;5.97;;;10.80;99.90;;;;;;5041386;28;20463;-81
2024/02/05 08:29:02;;;;;;;25.43;5.50;;;10.80;99.90;;;;;;5055102;28;20492;-81
2024/02/05 08:31:29;;;;;;;17.60;5.30;;;10.80;99.90;;;;;;5052832;28;20472;-83
2024/02/05 08:33:56;;;;;;;16.73;5.43;;;10.70;99.90;;;;;;5054671;28;20478;-83
2024/02/05 08:36:23;;;;;;;16.07;5.30;;;10.70;99.90;;;;;;5059086;28;20757;-82
2024/02/05 08:38:50;;;;;;;14.20;6.30;;;10.80;99.90;;;;;;5059814;28;20558;-81
2024/02/05 08:41:18;;;;;;;18.90;5.93;;;10.80;99.90;;;;;;5044662;28;20859;-82
2024/02/05 08:43:45;;;;;;;15.60;5.23;;;10.70;99.90;;;;;;5052797;28;20471;-83
2024/02/05 08:46:12;;;;;;;16.10;5.00;;;10.70;99.90;;;;;;5053320;28;20468;-83
2024/02/05 08:48:40;;;;;;;16.63;5.77;;;10.80;99.90;;;;;;5052699;28;20488;-83
2024/02/05 08:51:07;;;;;;;19.60;6.17;;;10.80;99.90;;;;;;5054822;28;20508;-85
2024/02/05 08:53:34;;;;;;;15.43;5.07;;;10.90;99.90;;;;;;5063305;28;20547;-81
2024/02/05 08:56:01;;;;;;;18.67;4.60;;;10.90;99.90;;;;;;5059108;28;20457;-82
2024/02/05 08:58:29;;;;;;;25.77;5.77;;;11.00;99.90;;;;;;5063465;28;20464;-83
2024/02/05 09:00:56;;;;;;;14.60;5.27;;;11.00;99.90;;;;;;5053514;28;20440;-83
2024/02/05 09:03:23;;;;;;;19.77;5.17;;;10.90;99.90;;;;;;5063707;28;20474;-84
2024/02/05 09:05:51;;;;;;;19.47;5.20;;;11.00;99.90;;;;;;5064801;28;20490;-81
2024/02/05 09:08:18;;;;;;;18.47;5.63;;;10.90;99.90;;;;;;5062610;28;20461;-83
2024/02/05 09:10:45;;;;;;;14.90;5.27;;;11.10;99.90;;;;;;5065434;28;20455;-82
2024/02/05 09:13:13;;;;;;;15.70;5.07;;;11.00;99.90;;;;;;5065855;28;20506;-83
2024/02/05 09:15:42;;;;;;;19.43;7.50;;;11.00;99.90;;;;;;5069603;28;20506;-85
2024/02/05 09:18:09;;;;;;;12.47;4.53;;;11.10;99.90;;;;;;5069431;28;20448;-85
2024/02/05 09:20:37;;;;;;;13.27;5.00;;;11.00;99.90;;;;;;5076017;28;20475;-82
2024/02/05 09:23:07;;;;;;;15.13;5.90;;;11.00;99.90;;;;;;5079648;28;20478;-82
2024/02/05 09:25:47;;;;;;;19.43;5.63;;;11.00;99.90;;;;;;5079514;28;20468;-82
2024/02/05 09:28:13;;;;;;;21.93;6.23;;;11.20;99.90;;;;;;5069427;28;20524;-86
2024/02/05 09:30:43;;;;;;;17.50;5.23;;;11.20;99.90;;;;;;5063965;28;20468;-83
2024/02/05 09:33:10;;;;;;;15.87;5.20;;;11.20;99.90;;;;;;5060735;28;20877;-85
2024/02/05 09:35:39;;;;;;;16.07;5.47;;;11.20;99.90;;;;;;5059441;28;20487;-83
2024/02/05 09:38:06;;;;;;;20.83;5.60;;;11.30;99.90;;;;;;5059558;28;20475;-83
2024/02/05 09:40:33;;;;;;;11.70;5.27;;;11.40;99.90;;;;;;5058485;28;20502;-84
2024/02/05 09:43:01;;;;;;;16.03;5.33;;;11.40;99.90;;;;;;5053444;28;20532;-84
2024/02/05 09:45:30;;;;;;;14.17;5.60;;;11.50;99.90;;;;;;5050376;28;20579;-83
2024/02/05 09:48:01;;;;;;;13.00;5.73;;;11.40;99.90;;;;;;5052458;28;20483;-83
2024/02/05 09:50:29;;;;;;;16.03;6.03;;;11.30;99.90;;;;;;5057201;28;20503;-83
2024/02/05 09:52:56;;;;;;;22.17;6.10;;;11.30;99.90;;;;;;5046284;28;20455;-84
2024/02/05 09:55:24;;;;;;;16.43;5.33;;;11.40;99.90;;;;;;5053263;28;20459;-83
2024/02/05 09:57:53;;;;;;;19.43;5.80;;;11.30;99.90;;;;;;5057360;28;20459;-83
2024/02/05 10:00:20;;;;;;;24.63;6.03;;;11.40;99.90;;;;;;5062231;28;20468;-83
2024/02/05 10:02:47;;;;;;;14.20;5.20;;;11.50;99.90;;;;;;5054580;28;20545;-83
2024/02/05 10:05:18;;;;;;;13.90;6.33;;;11.60;99.90;;;;;;5057839;28;20571;-84
2024/02/05 10:07:48;;;;;;;19.20;5.07;;;11.40;99.90;;;;;;5062377;28;20456;-82
2024/02/05 10:10:16;;;;;;;16.83;6.10;;;11.40;99.90;;;;;;5062944;28;20916;-82
2024/02/05 10:12:46;;;;;;;21.27;5.20;;;11.30;99.90;;;;;;5062966;28;20473;-83
2024/02/05 10:15:14;;;;;;;14.33;5.60;;;11.40;99.90;;;;;;5063066;28;20452;-83
2024/02/05 10:17:43;;;;;;;14.20;5.80;;;11.40;99.90;;;;;;5063497;28;20456;-82
2024/02/05 10:20:14;;;;;;;27.80;7.30;;;11.60;99.90;;;;;;5063755;28;21612;-83
2024/02/05 10:22:47;;;;;;;20.30;5.33;;;11.60;99.90;;;;;;5052147;28;20441;-84
2024/02/05 10:25:15;;;;;;;15.83;5.73;;;11.70;99.90;;;;;;5061011;28;20483;-83
2024/02/05 10:27:43;;;;;;;17.30;6.53;;;11.50;99.90;;;;;;5059168;28;20439;-83
2024/02/05 10:30:10;;;;;;;15.20;7.07;;;11.40;99.90;;;;;;5058381;28;20562;-83
2024/02/05 10:32:39;;;;;;;17.93;6.90;;;11.50;99.90;;;;;;5056235;28;20460;-82
2024/02/05 10:35:09;;;;;;;20.73;6.13;;;11.40;99.90;;;;;;5056376;28;20456;-80
2024/02/05 10:37:36;;;;;;;17.53;5.97;;;11.40;99.90;;;;;;5060180;28;20467;-82
2024/02/05 10:40:11;;;;;;;15.70;8.57;;;11.50;99.90;;;;;;5056309;28;20477;-83
2024/02/05 10:42:38;;;;;;;19.70;6.83;;;11.50;99.90;;;;;;5054763;28;20453;-83
2024/02/05 10:45:06;;;;;;;16.73;5.83;;;11.40;99.90;;;;;;5054340;28;20523;-84
2024/02/05 10:47:34;;;;;;;14.33;6.10;;;11.40;99.90;;;;;;5052073;28;20488;-83
2024/02/05 10:50:01;;;;;;;20.47;8.07;;;11.50;99.90;;;;;;5055031;28;20483;-82
2024/02/05 10:52:28;;;;;;;16.57;5.77;;;11.60;99.90;;;;;;5051149;28;20552;-84
2024/02/05 10:54:57;;;;;;;16.60;5.70;;;11.70;99.90;;;;;;5035175;28;20454;-83
2024/02/05 10:57:26;;;;;;;14.10;5.10;;;11.80;99.90;;;;;;5048874;28;20473;-84
2024/02/05 10:59:53;;;;;;;19.10;6.73;;;12.00;99.90;;;;;;5052992;28;20544;-84
2024/02/05 11:02:25;;;;;;;14.90;6.97;;;11.80;99.90;;;;;;5061454;28;20475;-83
2024/02/05 11:04:54;;;;;;;18.07;6.47;;;11.80;99.90;;;;;;5058792;28;20527;-83
2024/02/05 11:07:23;;;;;;;16.53;6.67;;;11.90;99.90;;;;;;5064667;28;20458;-85
2024/02/05 11:09:51;;;;;;;16.07;7.47;;;11.80;99.90;;;;;;5057768;28;20541;-85
2024/02/05 11:12:22;;;;;;;17.10;7.33;;;11.60;99.90;;;;;;5053966;28;20516;-85
2024/02/05 11:14:55;;;;;;;14.67;5.97;;;11.80;99.90;;;;;;5061937;28;20468;-82
2024/02/05 11:17:22;;;;;;;13.90;6.00;;;11.80;99.90;;;;;;5057340;28;20469;-84
2024/02/05 11:19:51;;;;;;;20.33;7.03;;;11.80;99.90;;;;;;5066306;28;20563;-84
2024/02/05 11:22:21;;;;;;;9.83;5.23;;;11.80;99.90;;;;;;5063744;28;20463;-84
2024/02/05 11:24:47;;;;;;;17.40;5.20;;;11.80;99.90;;;;;;5069930;28;20575;-84
2024/02/05 11:27:16;;;;;;;18.47;5.90;;;11.80;99.90;;;;;;5059447;28;20535;-84
2024/02/05 11:29:43;;;;;;;12.80;5.17;;;11.70;99.90;;;;;;5058160;28;20504;-84
2024/02/05 11:32:11;;;;;;;15.40;5.77;;;11.80;99.90;;;;;;5058457;28;20538;-83
2024/02/05 11:34:42;;;;;;;17.47;5.33;;;11.60;99.90;;;;;;5059054;28;20455;-83
2024/02/05 11:37:09;;;;;;;22.83;6.63;;;11.70;99.90;;;;;;5058130;28;20849;-85
2024/02/05 11:39:37;;;;;;;15.13;5.10;;;11.60;99.90;;;;;;5049589;28;20521;-84
2024/02/05 11:42:08;;;;;;;16.97;5.20;;;11.60;99.90;;;;;;5057005;28;20459;-84
2024/02/05 11:44:35;;;;;;;13.43;5.50;;;11.60;99.90;;;;;;5063058;28;20461;-84
2024/02/05 11:47:02;;;;;;;14.03;4.97;;;11.50;99.90;;;;;;5057003;28;20485;-83
2024/02/05 11:49:34;;;;;;;12.00;4.73;;;11.30;99.90;;;;;;5056623;28;20545;-84
2024/02/05 11:52:01;;;;;;;18.57;6.57;;;11.40;99.90;;;;;;5058742;28;20469;-83
2024/02/05 11:54:29;;;;;;;14.27;4.67;;;11.40;99.90;;;;;;5059231;28;20547;-82
2024/02/05 11:56:56;;;;;;;19.87;8.60;;;11.50;99.90;;;;;;5052605;28;20447;-83
2024/02/05 11:59:23;;;;;;;18.50;6.23;;;11.50;99.90;;;;;;5056546;28;20453;-84
2024/02/05 12:01:50;;;;;;;16.77;6.20;;;11.50;99.90;;;;;;5055371;28;20531;-83
2024/02/05 12:04:18;;;;;;;13.90;4.40;;;11.50;99.90;;;;;;5058354;28;20520;-85
2024/02/05 12:06:47;;;;;;;22.93;5.57;;;11.60;99.90;;;;;;5056828;28;20945;-85
2024/02/05 12:09:15;;;;;;;11.70;3.90;;;11.70;99.90;;;;;;5057852;28;20508;-79
2024/02/05 12:11:42;;;;;;;13.30;4.20;;;11.80;99.90;;;;;;5040451;28;20521;-85
2024/02/05 12:14:10;;;;;;;17.13;4.70;;;11.90;99.90;;;;;;5057053;28;20446;-83
2024/02/05 12:16:38;;;;;;;11.60;4.40;;;12.00;99.90;;;;;;5056790;28;20453;-83
2024/02/05 12:19:05;;;;;;;18.97;4.80;;;12.00;99.90;;;;;;5057325;28;20512;-84
2024/02/05 12:21:32;;;;;;;21.60;6.43;;;12.20;99.90;;;;;;5055931;28;20448;-84
2024/02/05 12:24:00;;;;;;;13.13;4.10;;;12.40;99.90;;;;;;5039420;28;20512;-83
2024/02/05 12:26:27;;;;;;;14.60;3.83;;;12.50;99.90;;;;;;5047232;28;20489;-84
2024/02/05 12:28:54;;;;;;;10.90;4.00;;;12.50;99.90;;;;;;5048921;28;20490;-83
2024/02/05 12:31:21;;;;;;;15.10;4.50;;;12.60;99.90;;;;;;5051603;28;20443;-85
2024/02/05 12:33:56;;;;;;;13.83;5.07;;;12.70;99.90;;;;;;5056016;28;20457;-86
2024/02/05 12:36:24;;;;;;;9.63;3.90;;;13.10;99.90;;;;;;5051272;28;20442;-84
2024/02/05 12:38:52;;;;;;;17.93;4.90;;;13.10;99.90;;;;;;5057545;28;20518;-85